sensor_id;sensor_type;location;lat;lon;timestamp;pressure;altitude;pressure_sealevel;temperature
37414;BMP280;23279;46.472;30.760;2023-04-28T00:00:43;78593.56;;;-146.33
37414;BMP280;23279;46.472;30.760;2023-04-28T00:05:43;78611.88;;;-146.33
37414;BMP280;23279;46.472;30.760;2023-04-28T00:08:09;78613.91;;;-146.33
37414;BMP280;23279;46.472;30.760;2023-04-28T00:10:34;78609.84;;;-146.33
37414;BMP280;23279;46.472;30.760;2023-04-28T00:13:00;78628.16;;;-146.33
37414;BMP280;23279;46.472;30.760;2023-04-28T00:15:25;78620.03;;;-146.33
37414;BMP280;23279;46.472;30.760;2023-04-28T00:17:50;78618.00;;;-146.33
37414;BMP280;23279;46.472;30.760;2023-04-28T00:20:16;78620.03;;;-146.33
37414;BMP280;23279;46.472;30.760;2023-04-28T00:22:42;78618.00;;;-146.33
37414;BMP280;23279;46.472;30.760;2023-04-28T00:25:08;78632.25;;;-146.33
37414;BMP280;23279;46.472;30.760;2023-04-28T00:27:34;78636.31;;;-146.33
37414;BMP280;23279;46.472;30.760;2023-04-28T00:29:59;78636.31;;;-146.33
37414;BMP280;23279;46.472;30.760;2023-04-28T00:32:25;78642.41;;;-146.33
37414;BMP280;23279;46.472;30.760;2023-04-28T00:34:50;78642.41;;;-146.33
37414;BMP280;23279;46.472;30.760;2023-04-28T00:37:17;78644.47;;;-146.33
37414;BMP280;23279;46.472;30.760;2023-04-28T00:39:43;78640.38;;;-146.33
37414;BMP280;23279;46.472;30.760;2023-04-28T00:42:14;78636.31;;;-146.33
37414;BMP280;23279;46.472;30.760;2023-04-28T00:44:40;78648.53;;;-146.33
37414;BMP280;23279;46.472;30.760;2023-04-28T00:47:07;78628.16;;;-146.33
37414;BMP280;23279;46.472;30.760;2023-04-28T00:49:34;78642.41;;;-146.33
37414;BMP280;23279;46.472;30.760;2023-04-28T00:52:03;78622.06;;;-146.33
37414;BMP280;23279;46.472;30.760;2023-04-28T00:54:29;78642.41;;;-146.33
37414;BMP280;23279;46.472;30.760;2023-04-28T00:56:55;78652.59;;;-146.33
37414;BMP280;23279;46.472;30.760;2023-04-28T00:59:21;78636.31;;;-146.33
37414;BMP280;23279;46.472;30.760;2023-04-28T01:01:46;78650.56;;;-146.33
37414;BMP280;23279;46.472;30.760;2023-04-28T01:04:13;78638.34;;;-146.33
37414;BMP280;23279;46.472;30.760;2023-04-28T01:06:40;78636.31;;;-146.33
37414;BMP280;23279;46.472;30.760;2023-04-28T01:09:06;78642.41;;;-146.33
37414;BMP280;23279;46.472;30.760;2023-04-28T01:11:32;78642.41;;;-146.33
37414;BMP280;23279;46.472;30.760;2023-04-28T01:13:57;78630.22;;;-146.33
37414;BMP280;23279;46.472;30.760;2023-04-28T01:16:24;78638.34;;;-146.33
37414;BMP280;23279;46.472;30.760;2023-04-28T01:18:51;78650.56;;;-146.33
37414;BMP280;23279;46.472;30.760;2023-04-28T01:21:28;78642.41;;;-146.33
37414;BMP280;23279;46.472;30.760;2023-04-28T01:23:57;78642.41;;;-146.33
37414;BMP280;23279;46.472;30.760;2023-04-28T01:26:22;78607.81;;;-146.33
37414;BMP280;23279;46.472;30.760;2023-04-28T01:28:48;78660.75;;;-146.33
37414;BMP280;23279;46.472;30.760;2023-04-28T01:31:13;78636.31;;;-146.33
37414;BMP280;23279;46.472;30.760;2023-04-28T01:33:38;78628.16;;;-146.33
37414;BMP280;23279;46.472;30.760;2023-04-28T01:36:04;78618.00;;;-146.33
37414;BMP280;23279;46.472;30.760;2023-04-28T01:38:30;78648.53;;;-146.33
37414;BMP280;23279;46.472;30.760;2023-04-28T01:40:55;78630.22;;;-146.33
37414;BMP280;23279;46.472;30.760;2023-04-28T01:43:22;78634.28;;;-146.33
37414;BMP280;23279;46.472;30.760;2023-04-28T01:45:48;78622.06;;;-146.33
37414;BMP280;23279;46.472;30.760;2023-04-28T01:48:13;78632.25;;;-146.33
37414;BMP280;23279;46.472;30.760;2023-04-28T01:50:39;78634.28;;;-146.33
37414;BMP280;23279;46.472;30.760;2023-04-28T01:53:04;78634.28;;;-146.33
37414;BMP280;23279;46.472;30.760;2023-04-28T01:55:29;78642.41;;;-146.33
37414;BMP280;23279;46.472;30.760;2023-04-28T01:57:55;78654.63;;;-146.33
37414;BMP280;23279;46.472;30.760;2023-04-28T02:00:22;78652.59;;;-146.33
37414;BMP280;23279;46.472;30.760;2023-04-28T02:02:48;78648.53;;;-146.33
37414;BMP280;23279;46.472;30.760;2023-04-28T02:05:14;78654.63;;;-146.33
37414;BMP280;23279;46.472;30.760;2023-04-28T02:07:39;78642.41;;;-146.33
37414;BMP280;23279;46.472;30.760;2023-04-28T02:10:06;78654.63;;;-146.33
37414;BMP280;23279;46.472;30.760;2023-04-28T02:12:32;78662.78;;;-146.33
37414;BMP280;23279;46.472;30.760;2023-04-28T02:14:57;78658.69;;;-146.33
37414;BMP280;23279;46.472;30.760;2023-04-28T02:17:23;78666.84;;;-146.33
37414;BMP280;23279;46.472;30.760;2023-04-28T02:19:53;78670.91;;;-146.33
37414;BMP280;23279;46.472;30.760;2023-04-28T02:22:20;78654.63;;;-146.33
37414;BMP280;23279;46.472;30.760;2023-04-28T02:24:45;78652.59;;;-146.33
37414;BMP280;23279;46.472;30.760;2023-04-28T02:27:11;78654.63;;;-146.33
37414;BMP280;23279;46.472;30.760;2023-04-28T02:29:37;78656.66;;;-146.33
37414;BMP280;23279;46.472;30.760;2023-04-28T02:32:03;78650.56;;;-146.33
37414;BMP280;23279;46.472;30.760;2023-04-28T02:34:28;78664.81;;;-146.33
37414;BMP280;23279;46.472;30.760;2023-04-28T02:36:54;78654.63;;;-146.33
37414;BMP280;23279;46.472;30.760;2023-04-28T02:39:19;78662.78;;;-146.33
37414;BMP280;23279;46.472;30.760;2023-04-28T02:41:53;78644.47;;;-146.33
37414;BMP280;23279;46.472;30.760;2023-04-28T02:44:19;78674.97;;;-146.33
37414;BMP280;23279;46.472;30.760;2023-04-28T02:46:45;78674.97;;;-146.33
37414;BMP280;23279;46.472;30.760;2023-04-28T02:49:10;78666.84;;;-146.33
37414;BMP280;23279;46.472;30.760;2023-04-28T02:51:36;78683.13;;;-146.33
37414;BMP280;23279;46.472;30.760;2023-04-28T02:54:01;78670.91;;;-146.33
37414;BMP280;23279;46.472;30.760;2023-04-28T02:56:27;78677.03;;;-146.33
37414;BMP280;23279;46.472;30.760;2023-04-28T02:58:54;78677.03;;;-146.33
37414;BMP280;23279;46.472;30.760;2023-04-28T03:01:19;78699.41;;;-146.33
37414;BMP280;23279;46.472;30.760;2023-04-28T03:03:45;78695.34;;;-146.33
37414;BMP280;23279;46.472;30.760;2023-04-28T03:06:10;78691.25;;;-146.33
37414;BMP280;23279;46.472;30.760;2023-04-28T03:08:36;78691.25;;;-146.33
37414;BMP280;23279;46.472;30.760;2023-04-28T03:11:01;78691.25;;;-146.33
37414;BMP280;23279;46.472;30.760;2023-04-28T03:13:26;78681.09;;;-146.33
37414;BMP280;23279;46.472;30.760;2023-04-28T03:15:54;78691.25;;;-146.33
37414;BMP280;23279;46.472;30.760;2023-04-28T03:18:19;78693.31;;;-146.33
37414;BMP280;23279;46.472;30.760;2023-04-28T03:20:46;78683.13;;;-146.33
37414;BMP280;23279;46.472;30.760;2023-04-28T03:23:12;78683.13;;;-146.33
37414;BMP280;23279;46.472;30.760;2023-04-28T03:25:37;78687.19;;;-146.33
37414;BMP280;23279;46.472;30.760;2023-04-28T03:28:03;78701.44;;;-146.33
37414;BMP280;23279;46.472;30.760;2023-04-28T03:30:29;78681.09;;;-146.33
37414;BMP280;23279;46.472;30.760;2023-04-28T03:32:54;78691.25;;;-146.33
37414;BMP280;23279;46.472;30.760;2023-04-28T03:35:20;78662.78;;;-146.33
37414;BMP280;23279;46.472;30.760;2023-04-28T03:37:45;78679.06;;;-146.33
37414;BMP280;23279;46.472;30.760;2023-04-28T03:40:11;78681.09;;;-146.33
37414;BMP280;23279;46.472;30.760;2023-04-28T03:42:37;78695.34;;;-146.33
37414;BMP280;23279;46.472;30.760;2023-04-28T03:45:02;78683.13;;;-146.33
37414;BMP280;23279;46.472;30.760;2023-04-28T03:47:28;78681.09;;;-146.33
37414;BMP280;23279;46.472;30.760;2023-04-28T03:49:53;78674.97;;;-146.33
37414;BMP280;23279;46.472;30.760;2023-04-28T03:52:19;78672.94;;;-146.33
37414;BMP280;23279;46.472;30.760;2023-04-28T03:54:44;78681.09;;;-146.33
37414;BMP280;23279;46.472;30.760;2023-04-28T03:57:10;78677.03;;;-146.33
37414;BMP280;23279;46.472;30.760;2023-04-28T03:59:36;78683.13;;;-146.33
37414;BMP280;23279;46.472;30.760;2023-04-28T04:02:02;78695.34;;;-146.33
37414;BMP280;23279;46.472;30.760;2023-04-28T04:04:27;78691.25;;;-146.33
37414;BMP280;23279;46.472;30.760;2023-04-28T04:06:53;78683.13;;;-146.33
37414;BMP280;23279;46.472;30.760;2023-04-28T04:09:18;78681.09;;;-146.33
37414;BMP280;23279;46.472;30.760;2023-04-28T04:11:44;78674.97;;;-146.33
37414;BMP280;23279;46.472;30.760;2023-04-28T04:14:09;78658.69;;;-146.33
37414;BMP280;23279;46.472;30.760;2023-04-28T04:16:35;78679.06;;;-146.33
37414;BMP280;23279;46.472;30.760;2023-04-28T04:19:01;78672.94;;;-146.33
37414;BMP280;23279;46.472;30.760;2023-04-28T04:21:26;78664.81;;;-146.33
37414;BMP280;23279;46.472;30.760;2023-04-28T04:23:52;78662.78;;;-146.33
37414;BMP280;23279;46.472;30.760;2023-04-28T04:26:17;78660.75;;;-146.33
37414;BMP280;23279;46.472;30.760;2023-04-28T04:28:43;78674.97;;;-146.33
37414;BMP280;23279;46.472;30.760;2023-04-28T04:31:08;78658.69;;;-146.33
37414;BMP280;23279;46.472;30.760;2023-04-28T04:33:34;78652.59;;;-146.33
37414;BMP280;23279;46.472;30.760;2023-04-28T04:35:59;78658.69;;;-146.33
37414;BMP280;23279;46.472;30.760;2023-04-28T04:38:24;78658.69;;;-146.33
37414;BMP280;23279;46.472;30.760;2023-04-28T04:40:50;78668.88;;;-146.33
37414;BMP280;23279;46.472;30.760;2023-04-28T04:43:15;78662.78;;;-146.33
37414;BMP280;23279;46.472;30.760;2023-04-28T04:45:41;78662.78;;;-146.33
37414;BMP280;23279;46.472;30.760;2023-04-28T04:48:06;78668.88;;;-146.33
37414;BMP280;23279;46.472;30.760;2023-04-28T04:50:32;78658.69;;;-146.33
37414;BMP280;23279;46.472;30.760;2023-04-28T04:52:57;78677.03;;;-146.33
37414;BMP280;23279;46.472;30.760;2023-04-28T04:55:23;78666.84;;;-146.33
37414;BMP280;23279;46.472;30.760;2023-04-28T04:57:48;78662.78;;;-146.33
37414;BMP280;23279;46.472;30.760;2023-04-28T05:00:14;78666.84;;;-146.33
37414;BMP280;23279;46.472;30.760;2023-04-28T05:02:41;78668.88;;;-146.33
37414;BMP280;23279;46.472;30.760;2023-04-28T05:05:07;78666.84;;;-146.33
37414;BMP280;23279;46.472;30.760;2023-04-28T05:07:33;78666.84;;;-146.33
37414;BMP280;23279;46.472;30.760;2023-04-28T05:09:58;78672.94;;;-146.33
37414;BMP280;23279;46.472;30.760;2023-04-28T05:12:24;78674.97;;;-146.33
37414;BMP280;23279;46.472;30.760;2023-04-28T05:14:50;78670.91;;;-146.33
37414;BMP280;23279;46.472;30.760;2023-04-28T05:17:15;78650.56;;;-146.33
37414;BMP280;23279;46.472;30.760;2023-04-28T05:19:41;78650.56;;;-146.33
37414;BMP280;23279;46.472;30.760;2023-04-28T05:22:06;78670.91;;;-146.33
37414;BMP280;23279;46.472;30.760;2023-04-28T05:24:32;78666.84;;;-146.33
37414;BMP280;23279;46.472;30.760;2023-04-28T05:26:58;78666.84;;;-146.33
37414;BMP280;23279;46.472;30.760;2023-04-28T05:29:23;78666.84;;;-146.33
37414;BMP280;23279;46.472;30.760;2023-04-28T05:31:48;78666.84;;;-146.33
37414;BMP280;23279;46.472;30.760;2023-04-28T05:34:14;78654.63;;;-146.33
37414;BMP280;23279;46.472;30.760;2023-04-28T05:36:40;78662.78;;;-146.33
37414;BMP280;23279;46.472;30.760;2023-04-28T05:39:05;78658.69;;;-146.33
37414;BMP280;23279;46.472;30.760;2023-04-28T05:41:31;78666.84;;;-146.33
37414;BMP280;23279;46.472;30.760;2023-04-28T05:43:57;78658.69;;;-146.33
37414;BMP280;23279;46.472;30.760;2023-04-28T05:46:22;78662.78;;;-146.33
37414;BMP280;23279;46.472;30.760;2023-04-28T05:48:48;78658.69;;;-146.33
37414;BMP280;23279;46.472;30.760;2023-04-28T05:51:13;78660.75;;;-146.33
37414;BMP280;23279;46.472;30.760;2023-04-28T05:53:38;78646.50;;;-146.33
37414;BMP280;23279;46.472;30.760;2023-04-28T05:56:04;78640.38;;;-146.33
37414;BMP280;23279;46.472;30.760;2023-04-28T05:58:30;78636.31;;;-146.33
37414;BMP280;23279;46.472;30.760;2023-04-28T06:00:56;78630.22;;;-146.33
37414;BMP280;23279;46.472;30.760;2023-04-28T06:03:21;78642.41;;;-146.33
37414;BMP280;23279;46.472;30.760;2023-04-28T06:05:46;78630.22;;;-146.33
37414;BMP280;23279;46.472;30.760;2023-04-28T06:08:12;78626.13;;;-146.33
37414;BMP280;23279;46.472;30.760;2023-04-28T06:10:37;78642.41;;;-146.33
37414;BMP280;23279;46.472;30.760;2023-04-28T06:13:03;78624.09;;;-146.33
37414;BMP280;23279;46.472;30.760;2023-04-28T06:15:30;78626.13;;;-146.33
37414;BMP280;23279;46.472;30.760;2023-04-28T06:17:56;78638.34;;;-146.33
37414;BMP280;23279;46.472;30.760;2023-04-28T06:20:23;78613.91;;;-146.33
37414;BMP280;23279;46.472;30.760;2023-04-28T06:22:48;78622.06;;;-146.33
37414;BMP280;23279;46.472;30.760;2023-04-28T06:25:14;78636.31;;;-146.33
37414;BMP280;23279;46.472;30.760;2023-04-28T06:27:39;78628.16;;;-146.33
37414;BMP280;23279;46.472;30.760;2023-04-28T06:30:05;78632.25;;;-146.33
37414;BMP280;23279;46.472;30.760;2023-04-28T06:32:31;78642.41;;;-146.33
37414;BMP280;23279;46.472;30.760;2023-04-28T06:34:56;78634.28;;;-146.33
37414;BMP280;23279;46.472;30.760;2023-04-28T06:37:22;78624.09;;;-146.33
37414;BMP280;23279;46.472;30.760;2023-04-28T06:39:47;78618.00;;;-146.33
37414;BMP280;23279;46.472;30.760;2023-04-28T06:42:13;78636.31;;;-146.33
37414;BMP280;23279;46.472;30.760;2023-04-28T06:44:42;78634.28;;;-146.33
37414;BMP280;23279;46.472;30.760;2023-04-28T06:47:07;78634.28;;;-146.33
37414;BMP280;23279;46.472;30.760;2023-04-28T06:49:33;78620.03;;;-146.33
37414;BMP280;23279;46.472;30.760;2023-04-28T06:51:59;78622.06;;;-146.33
37414;BMP280;23279;46.472;30.760;2023-04-28T06:54:25;78613.91;;;-146.33
37414;BMP280;23279;46.472;30.760;2023-04-28T06:56:50;78599.69;;;-146.33
37414;BMP280;23279;46.472;30.760;2023-04-28T06:59:16;78628.16;;;-146.33
37414;BMP280;23279;46.472;30.760;2023-04-28T07:01:42;78620.03;;;-146.33
37414;BMP280;23279;46.472;30.760;2023-04-28T07:04:07;78622.06;;;-146.33
37414;BMP280;23279;46.472;30.760;2023-04-28T07:06:33;78601.72;;;-146.33
37414;BMP280;23279;46.472;30.760;2023-04-28T07:08:58;78622.06;;;-146.33
37414;BMP280;23279;46.472;30.760;2023-04-28T07:11:23;78605.78;;;-146.33
37414;BMP280;23279;46.472;30.760;2023-04-28T07:13:49;78624.09;;;-146.33
37414;BMP280;23279;46.472;30.760;2023-04-28T07:16:16;78607.81;;;-146.33
37414;BMP280;23279;46.472;30.760;2023-04-28T07:18:43;78609.84;;;-146.33
37414;BMP280;23279;46.472;30.760;2023-04-28T07:21:08;78609.84;;;-146.33
37414;BMP280;23279;46.472;30.760;2023-04-28T07:23:34;78595.59;;;-146.33
37414;BMP280;23279;46.472;30.760;2023-04-28T07:25:59;78603.75;;;-146.33
37414;BMP280;23279;46.472;30.760;2023-04-28T07:28:25;78597.63;;;-146.33
37414;BMP280;23279;46.472;30.760;2023-04-28T07:30:50;78601.72;;;-146.33
37414;BMP280;23279;46.472;30.760;2023-04-28T07:33:16;78603.75;;;-146.33
37414;BMP280;23279;46.472;30.760;2023-04-28T07:35:41;78589.50;;;-146.33
37414;BMP280;23279;46.472;30.760;2023-04-28T07:38:07;78565.06;;;-146.33
37414;BMP280;23279;46.472;30.760;2023-04-28T07:40:32;78552.88;;;-146.33
37414;BMP280;23279;46.472;30.760;2023-04-28T07:42:58;78536.59;;;-146.33
37414;BMP280;23279;46.472;30.760;2023-04-28T07:45:23;78565.06;;;-146.33
37414;BMP280;23279;46.472;30.760;2023-04-28T08:14:43;78532.50;;;-146.33
37414;BMP280;23279;46.472;30.760;2023-04-28T08:17:09;78510.13;;;-146.33
37414;BMP280;23279;46.472;30.760;2023-04-28T08:19:34;78520.31;;;-146.33
37414;BMP280;23279;46.472;30.760;2023-04-28T08:22:00;78501.97;;;-146.33
37414;BMP280;23279;46.472;30.760;2023-04-28T08:24:29;78518.25;;;-146.33
37414;BMP280;23279;46.472;30.760;2023-04-28T08:27:16;78512.16;;;-146.33
37414;BMP280;23279;46.472;30.760;2023-04-28T08:29:42;78520.31;;;-146.33
37414;BMP280;23279;46.472;30.760;2023-04-28T08:32:07;78489.78;;;-146.33
37414;BMP280;23279;46.472;30.760;2023-04-28T08:34:33;78479.59;;;-146.33
37414;BMP280;23279;46.472;30.760;2023-04-28T08:36:58;78471.44;;;-146.33
37414;BMP280;23279;46.472;30.760;2023-04-28T08:39:24;78499.94;;;-146.33
37414;BMP280;23279;46.472;30.760;2023-04-28T08:41:51;78479.59;;;-146.33
37414;BMP280;23279;46.472;30.760;2023-04-28T08:44:17;78467.38;;;-146.33
37414;BMP280;23279;46.472;30.760;2023-04-28T08:46:44;78471.44;;;-146.33
37414;BMP280;23279;46.472;30.760;2023-04-28T08:49:22;78479.59;;;-146.33
37414;BMP280;23279;46.472;30.760;2023-04-28T08:51:55;78481.63;;;-146.33
37414;BMP280;23279;46.472;30.760;2023-04-28T08:54:29;78477.56;;;-146.33
37414;BMP280;23279;46.472;30.760;2023-04-28T08:56:56;78463.31;;;-146.33
37414;BMP280;23279;46.472;30.760;2023-04-28T08:59:22;78487.72;;;-146.33
37414;BMP280;23279;46.472;30.760;2023-04-28T09:01:48;78459.25;;;-146.33
37414;BMP280;23279;46.472;30.760;2023-04-28T09:04:16;78438.91;;;-146.33
37414;BMP280;23279;46.472;30.760;2023-04-28T09:06:41;78445.00;;;-146.33
37414;BMP280;23279;46.472;30.760;2023-04-28T09:09:29;78420.56;;;-146.33
37414;BMP280;23279;46.472;30.760;2023-04-28T09:12:00;78404.28;;;-146.33
37414;BMP280;23279;46.472;30.760;2023-04-28T09:14:29;78422.59;;;-146.33
37414;BMP280;23279;46.472;30.760;2023-04-28T09:16:56;78430.75;;;-146.33
37414;BMP280;23279;46.472;30.760;2023-04-28T09:19:22;78426.69;;;-146.33
37414;BMP280;23279;46.472;30.760;2023-04-28T09:21:55;78404.28;;;-146.33
37414;BMP280;23279;46.472;30.760;2023-04-28T09:27:03;78426.69;;;-146.33
37414;BMP280;23279;46.472;30.760;2023-04-28T09:29:32;78428.72;;;-146.33
37414;BMP280;23279;46.472;30.760;2023-04-28T09:32:18;78459.25;;;-146.33
37414;BMP280;23279;46.472;30.760;2023-04-28T09:34:51;78461.28;;;-146.33
37414;BMP280;23279;46.472;30.760;2023-04-28T09:37:23;78434.81;;;-146.33
37414;BMP280;23279;46.472;30.760;2023-04-28T09:39:51;78447.03;;;-146.33
37414;BMP280;23279;46.472;30.760;2023-04-28T09:42:40;78442.97;;;-146.33
37414;BMP280;23279;46.472;30.760;2023-04-28T09:45:13;78430.75;;;-146.33
37414;BMP280;23279;46.472;30.760;2023-04-28T09:47:39;78424.66;;;-146.33
37414;BMP280;23279;46.472;30.760;2023-04-28T09:50:06;78418.53;;;-146.33
37414;BMP280;23279;46.472;30.760;2023-04-28T09:52:34;78390.03;;;-146.33
37414;BMP280;23279;46.472;30.760;2023-04-28T09:55:02;78400.22;;;-146.33
37414;BMP280;23279;46.472;30.760;2023-04-28T09:57:29;78383.94;;;-146.33
37414;BMP280;23279;46.472;30.760;2023-04-28T09:59:59;78398.19;;;-146.33
37414;BMP280;23279;46.472;30.760;2023-04-28T10:02:25;78406.31;;;-146.33
37414;BMP280;23279;46.472;30.760;2023-04-28T10:04:51;78394.13;;;-146.33
37414;BMP280;23279;46.472;30.760;2023-04-28T10:07:18;78422.59;;;-146.33
37414;BMP280;23279;46.472;30.760;2023-04-28T10:09:48;78381.91;;;-146.33
37414;BMP280;23279;46.472;30.760;2023-04-28T10:12:17;78377.84;;;-146.33
37414;BMP280;23279;46.472;30.760;2023-04-28T10:14:44;78381.91;;;-146.33
37414;BMP280;23279;46.472;30.760;2023-04-28T10:17:12;78365.63;;;-146.33
37414;BMP280;23279;46.472;30.760;2023-04-28T10:19:48;78353.41;;;-146.33
37414;BMP280;23279;46.472;30.760;2023-04-28T10:25:32;78371.72;;;-146.33
37414;BMP280;23279;46.472;30.760;2023-04-28T10:27:59;78375.81;;;-146.33
37414;BMP280;23279;46.472;30.760;2023-04-28T10:30:28;78361.56;;;-146.33
37414;BMP280;23279;46.472;30.760;2023-04-28T10:38:11;78371.72;;;-146.33
37414;BMP280;23279;46.472;30.760;2023-04-28T10:40:51;78349.34;;;-146.33
37414;BMP280;23279;46.472;30.760;2023-04-28T10:56:10;78347.31;;;-146.33
37414;BMP280;23279;46.472;30.760;2023-04-28T10:58:40;78324.91;;;-146.33
37414;BMP280;23279;46.472;30.760;2023-04-28T11:03:52;78320.84;;;-146.33
37414;BMP280;23279;46.472;30.760;2023-04-28T11:06:28;78316.78;;;-146.33
37414;BMP280;23279;46.472;30.760;2023-04-28T11:08:55;78333.06;;;-146.33
37414;BMP280;23279;46.472;30.760;2023-04-28T11:11:22;78316.78;;;-146.33
37414;BMP280;23279;46.472;30.760;2023-04-28T11:13:50;78296.44;;;-146.33
37414;BMP280;23279;46.472;30.760;2023-04-28T11:16:18;78316.78;;;-146.33
37414;BMP280;23279;46.472;30.760;2023-04-28T11:18:59;78312.72;;;-146.33
37414;BMP280;23279;46.472;30.760;2023-04-28T11:21:29;78292.34;;;-146.33
37414;BMP280;23279;46.472;30.760;2023-04-28T11:23:56;78312.72;;;-146.33
37414;BMP280;23279;46.472;30.760;2023-04-28T11:26:23;78306.59;;;-146.33
37414;BMP280;23279;46.472;30.760;2023-04-28T11:28:53;78288.28;;;-146.33
37414;BMP280;23279;46.472;30.760;2023-04-28T11:31:21;78292.34;;;-146.33
37414;BMP280;23279;46.472;30.760;2023-04-28T11:33:59;78282.19;;;-146.33
37414;BMP280;23279;46.472;30.760;2023-04-28T11:38:56;78263.88;;;-146.33
37414;BMP280;23279;46.472;30.760;2023-04-28T11:41:22;78274.03;;;-146.33
37414;BMP280;23279;46.472;30.760;2023-04-28T11:43:47;78274.03;;;-146.33
37414;BMP280;23279;46.472;30.760;2023-04-28T11:46:21;78263.88;;;-146.33
37414;BMP280;23279;46.472;30.760;2023-04-28T11:48:47;78265.91;;;-146.33
37414;BMP280;23279;46.472;30.760;2023-04-28T11:51:33;78267.94;;;-146.33
37414;BMP280;23279;46.472;30.760;2023-04-28T11:53:59;78290.31;;;-146.33
37414;BMP280;23279;46.472;30.760;2023-04-28T11:56:26;78274.03;;;-146.33
37414;BMP280;23279;46.472;30.760;2023-04-28T11:59:06;78263.88;;;-146.33
37414;BMP280;23279;46.472;30.760;2023-04-28T12:01:33;78263.88;;;-146.33
37414;BMP280;23279;46.472;30.760;2023-04-28T12:04:01;78251.66;;;-146.33
37414;BMP280;23279;46.472;30.760;2023-04-28T12:06:27;78251.66;;;-146.33
37414;BMP280;23279;46.472;30.760;2023-04-28T12:08:54;78247.59;;;-146.33
37414;BMP280;23279;46.472;30.760;2023-04-28T12:11:20;78223.16;;;-146.33
37414;BMP280;23279;46.472;30.760;2023-04-28T12:14:07;78213.00;;;-146.33
37414;BMP280;23279;46.472;30.760;2023-04-28T12:16:41;78215.03;;;-146.33
37414;BMP280;23279;46.472;30.760;2023-04-28T12:19:09;78208.91;;;-146.33
37414;BMP280;23279;46.472;30.760;2023-04-28T12:21:36;78229.28;;;-146.33
37414;BMP280;23279;46.472;30.760;2023-04-28T12:24:18;78206.88;;;-146.33
37414;BMP280;23279;46.472;30.760;2023-04-28T12:26:50;78215.03;;;-146.33
37414;BMP280;23279;46.472;30.760;2023-04-28T12:29:38;78213.00;;;-146.33
37414;BMP280;23279;46.472;30.760;2023-04-28T12:32:08;78202.81;;;-146.33
37414;BMP280;23279;46.472;30.760;2023-04-28T12:34:35;78215.03;;;-146.33
37414;BMP280;23279;46.472;30.760;2023-04-28T12:37:04;78219.09;;;-146.33
37414;BMP280;23279;46.472;30.760;2023-04-28T12:39:30;78235.38;;;-146.33
37414;BMP280;23279;46.472;30.760;2023-04-28T12:41:55;78247.59;;;-146.33
37414;BMP280;23279;46.472;30.760;2023-04-28T12:44:23;78233.34;;;-146.33
37414;BMP280;23279;46.472;30.760;2023-04-28T12:46:50;78243.53;;;-146.33
37414;BMP280;23279;46.472;30.760;2023-04-28T12:49:15;78217.06;;;-146.33
37414;BMP280;23279;46.472;30.760;2023-04-28T12:51:41;78235.38;;;-146.33
37414;BMP280;23279;46.472;30.760;2023-04-28T12:54:06;78235.38;;;-146.33
37414;BMP280;23279;46.472;30.760;2023-04-28T12:56:32;78223.16;;;-146.33
37414;BMP280;23279;46.472;30.760;2023-04-28T12:58:59;78190.59;;;-146.33
37414;BMP280;23279;46.472;30.760;2023-04-28T13:01:26;78215.03;;;-146.33
37414;BMP280;23279;46.472;30.760;2023-04-28T13:03:52;78229.28;;;-146.33
37414;BMP280;23279;46.472;30.760;2023-04-28T13:06:18;78233.34;;;-146.33
37414;BMP280;23279;46.472;30.760;2023-04-28T13:08:44;78219.09;;;-146.33
37414;BMP280;23279;46.472;30.760;2023-04-28T13:11:10;78223.16;;;-146.33
37414;BMP280;23279;46.472;30.760;2023-04-28T13:13:35;78229.28;;;-146.33
37414;BMP280;23279;46.472;30.760;2023-04-28T13:16:01;78235.38;;;-146.33
37414;BMP280;23279;46.472;30.760;2023-04-28T13:18:29;78235.38;;;-146.33
37414;BMP280;23279;46.472;30.760;2023-04-28T13:20:54;78227.25;;;-146.33
37414;BMP280;23279;46.472;30.760;2023-04-28T13:23:20;78213.00;;;-146.33
37414;BMP280;23279;46.472;30.760;2023-04-28T13:25:45;78235.38;;;-146.33
37414;BMP280;23279;46.472;30.760;2023-04-28T13:28:11;78217.06;;;-146.33
37414;BMP280;23279;46.472;30.760;2023-04-28T13:30:37;78227.25;;;-146.33
37414;BMP280;23279;46.472;30.760;2023-04-28T13:33:03;78210.97;;;-146.33
37414;BMP280;23279;46.472;30.760;2023-04-28T13:35:28;78225.19;;;-146.33
37414;BMP280;23279;46.472;30.760;2023-04-28T13:37:53;78217.06;;;-146.33
37414;BMP280;23279;46.472;30.760;2023-04-28T13:40:29;78206.88;;;-146.33
37414;BMP280;23279;46.472;30.760;2023-04-28T13:42:55;78206.88;;;-146.33
37414;BMP280;23279;46.472;30.760;2023-04-28T13:45:20;78237.41;;;-146.33
37414;BMP280;23279;46.472;30.760;2023-04-28T13:47:46;78215.03;;;-146.33
37414;BMP280;23279;46.472;30.760;2023-04-28T13:50:13;78206.88;;;-146.33
37414;BMP280;23279;46.472;30.760;2023-04-28T13:52:39;78206.88;;;-146.33
37414;BMP280;23279;46.472;30.760;2023-04-28T13:55:04;78206.88;;;-146.33
37414;BMP280;23279;46.472;30.760;2023-04-28T13:57:30;78213.00;;;-146.33
37414;BMP280;23279;46.472;30.760;2023-04-28T13:59:55;78210.97;;;-146.33
37414;BMP280;23279;46.472;30.760;2023-04-28T14:02:21;78206.88;;;-146.33
37414;BMP280;23279;46.472;30.760;2023-04-28T14:04:47;78227.25;;;-146.33
37414;BMP280;23279;46.472;30.760;2023-04-28T14:07:14;78210.97;;;-146.33
37414;BMP280;23279;46.472;30.760;2023-04-28T14:09:39;78217.06;;;-146.33
37414;BMP280;23279;46.472;30.760;2023-04-28T14:12:05;78200.78;;;-146.33
37414;BMP280;23279;46.472;30.760;2023-04-28T14:14:31;78206.88;;;-146.33
37414;BMP280;23279;46.472;30.760;2023-04-28T14:16:57;78217.06;;;-146.33
37414;BMP280;23279;46.472;30.760;2023-04-28T14:19:22;78213.00;;;-146.33
37414;BMP280;23279;46.472;30.760;2023-04-28T14:21:53;78210.97;;;-146.33
37414;BMP280;23279;46.472;30.760;2023-04-28T14:24:19;78223.16;;;-146.33
37414;BMP280;23279;46.472;30.760;2023-04-28T14:26:45;78221.13;;;-146.33
37414;BMP280;23279;46.472;30.760;2023-04-28T14:29:11;78235.38;;;-146.33